Thompson, Michigan
Current Conditions -  °F | °C
As of 9:34 PM on Friday 31 Oct 2014 (Local Time) from KISQ Reporting Station
Overcast Overcast  
Wind Chill: -4°   Ceiling: 4000
Heat Index:   Visibility: 10mi
Dew Point: -7°   Wind: 9mph
Humidity: 60%   Direction: 10°N
Pressure: 30.4"   Gusts: NA
Location:  46.1571°N, 86.3397°W
Report Text: KISQ 010134Z AUTO 01008KT 10SM OVC040 00/M07 A3040 RMK AO2 T00001070
Loading
Personal Weather Stations






























Interactive Weather Map
Tropical Storm Tracking
New forecast layout! Learn more

10-Day Weather Forecast

Advertisements
Track Severe Weather on mobile